Terminal Aerodrome Forecast
Issued by NWS

Home | Current Version | Previous Version | Text Only | Print | Product List | Glossary Off
Versions: 1 2 3 4 5 6 7 8 9 10 11 12 13 14 15 16 17

000
FTUS43 KPAH 271103 AAA
TAFCGI
TAF AMD
KCGI 271103Z 2711/2806 00000KT P6SM VCTS SCT050CB SCT120
     FM271200 00000KT P6SM SCT120
     FM271500 21004KT P6SM SCT040=

USA.gov is the U.S. government's official web portal to all federal, state and local government web resources and services.